Time;durP1;ratioP1;P1;durP2;ratioP2;P2;SDS_P1;SDS_P2;PMS_P1;PMS_P2;Temp;Humidity;BMP_temperature;BMP_pressure;BME280_temperature;BME280_humidity;BME280_pressure;Samples;Min_cycle;Max_cycle;Signal;HPM_P1;HPM_P2
2021/12/29 00:00:59;;;;;;;2.60;0.73;;;18.60;46.10;;;;;;5013886;28;20026;-71
2021/12/29 00:03:25;;;;;;;1.02;0.50;;;18.60;46.10;;;;;;5013789;28;20036;-71
2021/12/29 00:05:50;;;;;;;1.65;0.60;;;18.60;46.20;;;;;;5013357;28;20037;-71
2021/12/29 00:08:16;;;;;;;1.65;0.70;;;18.60;46.10;;;;;;5013967;28;20478;-71
2021/12/29 00:10:42;;;;;;;1.23;0.40;;;18.60;46.10;;;;;;5013462;28;20113;-71
2021/12/29 00:13:07;;;;;;;0.80;0.40;;;18.60;46.10;;;;;;5013524;28;20497;-71
2021/12/29 00:15:33;;;;;;;0.75;0.47;;;18.60;46.10;;;;;;5012492;28;20053;-72
2021/12/29 00:17:59;;;;;;;1.08;0.50;;;18.60;46.20;;;;;;5006708;28;20021;-71
2021/12/29 00:20:29;;;;;;;0.85;0.40;;;18.60;46.20;;;;;;4993788;28;20037;-71
2021/12/29 00:22:56;;;;;;;0.80;0.50;;;18.60;46.20;;;;;;4993646;28;20024;-71
2021/12/29 00:25:22;;;;;;;0.95;0.50;;;18.60;46.20;;;;;;4993538;28;20030;-71
2021/12/29 00:27:48;;;;;;;0.77;0.38;;;18.60;46.20;;;;;;4992412;28;20018;-71
2021/12/29 00:30:14;;;;;;;1.33;0.65;;;18.60;46.20;;;;;;5011817;28;20104;-71
2021/12/29 00:32:39;;;;;;;1.05;0.55;;;18.60;46.20;;;;;;5013208;28;20021;-71
2021/12/29 00:35:08;;;;;;;0.70;0.50;;;18.60;46.20;;;;;;5013314;28;20562;-71
2021/12/29 00:37:34;;;;;;;0.85;0.40;;;18.60;46.20;;;;;;5013102;28;20026;-71
2021/12/29 00:39:59;;;;;;;0.55;0.30;;;18.60;46.20;;;;;;5013263;28;20026;-71
2021/12/29 00:42:25;;;;;;;0.47;0.30;;;18.60;46.30;;;;;;5013128;28;20108;-71
2021/12/29 00:44:50;;;;;;;0.63;0.40;;;18.60;46.30;;;;;;5013137;28;20095;-71
2021/12/29 00:47:16;;;;;;;1.00;0.55;;;18.60;46.30;;;;;;5013076;28;20032;-71
2021/12/29 00:49:42;;;;;;;1.48;0.55;;;18.60;46.20;;;;;;5013092;28;20029;-71
2021/12/29 00:52:09;;;;;;;1.10;0.47;;;18.60;46.20;;;;;;5016182;28;20053;-71
2021/12/29 00:54:37;;;;;;;1.42;0.50;;;18.60;46.20;;;;;;5019696;28;20036;-71
2021/12/29 00:57:03;;;;;;;0.98;0.43;;;18.60;46.30;;;;;;5019382;28;20037;-71
2021/12/29 00:59:29;;;;;;;0.60;0.50;;;18.60;46.30;;;;;;5019650;28;20030;-71
2021/12/29 01:01:55;;;;;;;1.10;0.63;;;18.60;46.30;;;;;;5019542;28;20026;-71
2021/12/29 01:04:21;;;;;;;1.08;0.60;;;18.60;46.30;;;;;;5019324;28;20076;-71
2021/12/29 01:06:46;;;;;;;0.57;0.40;;;18.60;46.30;;;;;;5019336;28;20398;-71
2021/12/29 01:09:12;;;;;;;1.48;0.50;;;18.60;46.30;;;;;;5019591;28;20026;-72
2021/12/29 01:11:38;;;;;;;0.60;0.40;;;18.60;46.40;;;;;;5019578;28;20041;-71
2021/12/29 01:14:04;;;;;;;1.58;0.55;;;18.60;46.30;;;;;;5019388;28;20045;-71
2021/12/29 01:19:02;;;;;;;2.00;0.60;;;18.60;46.30;;;;;;5004173;28;20054;-71
2021/12/29 01:21:28;;;;;;;1.10;0.50;;;18.60;46.30;;;;;;4999922;28;20165;-71
2021/12/29 01:23:54;;;;;;;0.95;0.50;;;18.60;47.30;;;;;;4998499;28;20037;-71
2021/12/29 01:26:20;;;;;;;1.63;0.57;;;18.60;46.30;;;;;;4999654;28;20491;-72
2021/12/29 01:28:45;;;;;;;2.38;0.70;;;18.60;46.40;;;;;;5005883;28;20033;-71
2021/12/29 01:31:11;;;;;;;1.00;0.60;;;18.60;46.40;;;;;;5019077;28;20379;-71
2021/12/29 01:33:36;;;;;;;1.23;0.70;;;18.60;46.40;;;;;;5018036;28;20053;-71
2021/12/29 01:36:02;;;;;;;0.95;0.55;;;18.60;46.40;;;;;;5019235;28;20033;-71
2021/12/29 01:38:28;;;;;;;1.13;0.57;;;18.60;46.50;;;;;;5019113;28;20064;-71
2021/12/29 01:40:54;;;;;;;1.10;0.50;;;18.60;46.40;;;;;;5019177;28;20029;-71
2021/12/29 01:43:20;;;;;;;0.93;0.47;;;18.60;46.40;;;;;;5019140;28;20393;-71
2021/12/29 01:45:46;;;;;;;1.15;0.52;;;18.60;46.40;;;;;;5019199;28;20025;-71
2021/12/29 01:48:12;;;;;;;0.93;0.50;;;18.60;46.40;;;;;;5019147;28;20030;-71
2021/12/29 01:50:40;;;;;;;1.40;0.50;;;18.60;46.40;;;;;;5019246;28;20132;-71
2021/12/29 01:53:12;;;;;;;1.08;0.60;;;18.60;46.40;;;;;;5018995;28;20022;-71
2021/12/29 01:55:39;;;;;;;1.83;0.73;;;18.60;46.50;;;;;;5019215;28;20389;-71
2021/12/29 01:58:06;;;;;;;1.95;0.52;;;18.60;46.40;;;;;;5018896;28;20265;-71
2021/12/29 02:00:35;;;;;;;1.30;0.60;;;18.60;46.50;;;;;;5018018;28;20045;-71
2021/12/29 02:03:01;;;;;;;1.08;0.52;;;18.60;46.50;;;;;;5016391;28;20152;-71
2021/12/29 02:05:27;;;;;;;1.35;0.55;;;18.60;46.50;;;;;;5015758;28;20486;-71
2021/12/29 02:07:52;;;;;;;0.68;0.50;;;18.60;46.50;;;;;;5015805;28;20101;-71
2021/12/29 02:10:18;;;;;;;2.33;0.55;;;18.60;46.50;;;;;;5015872;28;20539;-71
2021/12/29 02:12:44;;;;;;;1.63;0.50;;;18.60;46.50;;;;;;5015711;28;20030;-71
2021/12/29 02:15:11;;;;;;;1.63;0.68;;;18.60;46.50;;;;;;5015778;28;20132;-71
2021/12/29 02:17:37;;;;;;;1.85;0.60;;;18.60;46.50;;;;;;5011951;28;20057;-71
2021/12/29 02:20:05;;;;;;;0.98;0.47;;;18.60;46.50;;;;;;4996267;28;20690;-71
2021/12/29 02:25:08;;;;;;;1.05;0.52;;;18.60;46.50;;;;;;4996236;28;20496;-71
2021/12/29 02:27:38;;;;;;;0.93;0.55;;;18.60;46.80;;;;;;4996047;28;20159;-71
2021/12/29 02:30:05;;;;;;;1.45;0.80;;;18.60;46.60;;;;;;5012657;28;20029;-71
2021/12/29 02:32:31;;;;;;;1.20;0.70;;;18.60;46.50;;;;;;5015502;28;20479;-71
2021/12/29 02:34:56;;;;;;;1.35;0.70;;;18.60;46.60;;;;;;5013915;28;20032;-71
2021/12/29 02:37:23;;;;;;;1.20;0.70;;;18.60;46.60;;;;;;5015274;28;20030;-70
2021/12/29 02:39:49;;;;;;;0.82;0.60;;;18.60;46.60;;;;;;5015167;28;20018;-70
2021/12/29 02:42:19;;;;;;;1.38;0.65;;;18.60;46.60;;;;;;5015360;28;20430;-71
2021/12/29 02:44:46;;;;;;;1.67;0.50;;;18.60;46.60;;;;;;5015238;28;20121;-71
2021/12/29 02:47:11;;;;;;;1.77;0.70;;;18.60;46.60;;;;;;5013903;28;20025;-71
2021/12/29 02:49:37;;;;;;;1.13;0.57;;;18.60;46.60;;;;;;5015008;28;20375;-71
2021/12/29 02:52:04;;;;;;;1.35;0.70;;;18.60;46.60;;;;;;5015051;28;20025;-71
2021/12/29 02:54:29;;;;;;;1.08;0.70;;;18.60;46.60;;;;;;5014991;28;20030;-71
2021/12/29 02:56:55;;;;;;;1.05;0.60;;;18.60;46.60;;;;;;5014868;28;20018;-71
2021/12/29 02:59:22;;;;;;;1.10;0.57;;;18.60;46.60;;;;;;5015115;28;20387;-71
2021/12/29 03:01:48;;;;;;;2.25;0.85;;;18.60;46.60;;;;;;5013795;28;20046;-71
2021/12/29 03:04:14;;;;;;;1.38;0.63;;;18.60;46.60;;;;;;5014480;28;20021;-71
2021/12/29 03:06:40;;;;;;;0.88;0.68;;;18.60;46.70;;;;;;5014672;28;20050;-71
2021/12/29 03:09:08;;;;;;;0.80;0.50;;;18.60;46.60;;;;;;5014438;28;20482;-71
2021/12/29 03:11:35;;;;;;;1.33;0.60;;;18.60;46.60;;;;;;5014775;28;20058;-71
2021/12/29 03:14:01;;;;;;;1.08;0.55;;;18.60;46.60;;;;;;5014240;28;20028;-71
2021/12/29 03:16:27;;;;;;;0.93;0.60;;;18.60;46.60;;;;;;5014733;28;20108;-71
2021/12/29 03:18:53;;;;;;;1.27;0.70;;;18.60;46.60;;;;;;5000219;28;20034;-71
2021/12/29 03:21:18;;;;;;;1.17;0.60;;;18.60;46.60;;;;;;4995054;28;20029;-71
2021/12/29 03:23:44;;;;;;;1.17;0.60;;;18.60;46.60;;;;;;4994736;28;20038;-71
2021/12/29 03:26:10;;;;;;;0.75;0.70;;;18.60;46.60;;;;;;4994747;28;20030;-71
2021/12/29 03:28:37;;;;;;;0.75;0.45;;;18.60;46.60;;;;;;4999848;28;20538;-71
2021/12/29 03:31:04;;;;;;;0.52;0.50;;;18.60;46.60;;;;;;5014123;28;20037;-71
2021/12/29 03:33:29;;;;;;;0.43;0.38;;;18.60;46.60;;;;;;5014253;28;20461;-71
2021/12/29 03:36:00;;;;;;;1.02;0.65;;;18.60;46.60;;;;;;5014000;28;20058;-71
2021/12/29 03:38:27;;;;;;;1.55;0.55;;;18.60;46.60;;;;;;5014268;28;20041;-71
2021/12/29 03:40:54;;;;;;;0.52;0.50;;;18.60;46.60;;;;;;5014211;28;20567;-71
2021/12/29 03:43:21;;;;;;;1.08;0.70;;;18.60;46.60;;;;;;5012961;28;20493;-71
2021/12/29 03:45:50;;;;;;;2.35;0.55;;;18.60;46.70;;;;;;5013807;28;20036;-71
2021/12/29 03:48:16;;;;;;;1.27;0.52;;;18.60;46.60;;;;;;5014132;28;20072;-71
2021/12/29 03:50:42;;;;;;;0.82;0.50;;;18.60;46.60;;;;;;5014006;28;20386;-71
2021/12/29 03:53:09;;;;;;;0.85;0.60;;;18.60;46.70;;;;;;5012912;28;20018;-71
2021/12/29 03:55:35;;;;;;;1.00;0.40;;;18.60;46.70;;;;;;5013672;28;20026;-71
2021/12/29 03:58:01;;;;;;;1.23;0.60;;;18.60;46.70;;;;;;5013879;28;20054;-71
2021/12/29 04:00:27;;;;;;;0.85;0.50;;;18.60;46.70;;;;;;5013683;28;20549;-71
2021/12/29 04:02:52;;;;;;;0.60;0.40;;;18.60;46.70;;;;;;5013805;28;20117;-71
2021/12/29 04:05:20;;;;;;;1.58;0.47;;;18.60;46.70;;;;;;5012270;28;20390;-71
2021/12/29 04:07:47;;;;;;;1.33;0.50;;;18.60;46.70;;;;;;5013467;28;20054;-71
2021/12/29 04:10:13;;;;;;;0.52;0.52;;;18.60;46.70;;;;;;5013688;28;20109;-71
2021/12/29 04:12:40;;;;;;;1.38;0.50;;;18.60;46.70;;;;;;5013604;28;20029;-71
2021/12/29 04:15:08;;;;;;;1.23;0.50;;;18.60;46.70;;;;;;5012196;28;20072;-71
2021/12/29 04:17:36;;;;;;;0.55;0.50;;;18.60;46.70;;;;;;5010301;28;20027;-71
2021/12/29 04:23:01;;;;;;;0.88;0.38;;;18.60;46.70;;;;;;4994047;28;20042;-71
2021/12/29 04:25:27;;;;;;;1.10;0.70;;;18.60;46.70;;;;;;4993300;28;20081;-71
2021/12/29 04:27:54;;;;;;;1.05;0.60;;;18.60;46.80;;;;;;4993305;28;20387;-71
2021/12/29 04:30:21;;;;;;;1.50;0.60;;;18.60;46.80;;;;;;5011418;28;20017;-71
2021/12/29 04:32:46;;;;;;;0.50;0.50;;;18.60;46.80;;;;;;5013486;28;20498;-71
2021/12/29 04:35:12;;;;;;;2.90;0.50;;;18.60;46.80;;;;;;5013288;28;20094;-71
2021/12/29 04:37:37;;;;;;;1.13;0.55;;;18.60;46.80;;;;;;5013043;28;20028;-71
2021/12/29 04:40:06;;;;;;;1.23;0.70;;;18.60;46.70;;;;;;5012983;28;20025;-71
2021/12/29 04:42:31;;;;;;;0.68;0.43;;;18.60;46.80;;;;;;5013307;28;20034;-71
2021/12/29 04:44:57;;;;;;;0.95;0.40;;;18.60;46.80;;;;;;5013024;28;20398;-71
2021/12/29 04:47:28;;;;;;;1.33;0.70;;;18.60;46.70;;;;;;5013100;28;20022;-71
2021/12/29 04:49:54;;;;;;;0.70;0.50;;;18.60;46.80;;;;;;5013264;28;20018;-71
2021/12/29 04:52:20;;;;;;;1.02;0.47;;;18.50;46.70;;;;;;5013358;28;20050;-71
2021/12/29 04:54:45;;;;;;;0.50;0.50;;;18.60;46.80;;;;;;5013178;28;20026;-71
2021/12/29 04:57:12;;;;;;;0.88;0.50;;;18.60;46.80;;;;;;5011860;28;20026;-71
2021/12/29 04:59:38;;;;;;;0.43;0.40;;;18.60;46.70;;;;;;5013052;28;20434;-71
2021/12/29 05:02:03;;;;;;;1.40;0.60;;;18.60;46.80;;;;;;5012953;28;20084;-71
2021/12/29 05:04:32;;;;;;;1.60;0.82;;;18.60;46.80;;;;;;5011611;28;20458;-71
2021/12/29 05:09:43;;;;;;;0.77;0.50;;;18.50;46.70;;;;;;5013278;28;20041;-71
2021/12/29 05:12:08;;;;;;;0.60;0.60;;;18.50;46.80;;;;;;5012802;28;20025;-71
2021/12/29 05:14:34;;;;;;;1.00;0.63;;;18.50;46.80;;;;;;5011646;28;20026;-71
2021/12/29 05:17:00;;;;;;;1.58;0.60;;;18.60;46.80;;;;;;5012801;28;20037;-71
2021/12/29 05:19:26;;;;;;;1.20;0.60;;;18.50;46.80;;;;;;4994175;28;20022;-70
2021/12/29 05:21:52;;;;;;;1.15;0.50;;;18.60;46.90;;;;;;4993110;28;20027;-70
2021/12/29 05:24:17;;;;;;;1.30;0.77;;;18.50;46.80;;;;;;4992049;28;20015;-70
2021/12/29 05:26:43;;;;;;;1.48;0.55;;;18.50;46.80;;;;;;4993161;28;20424;-71
2021/12/29 05:29:08;;;;;;;0.63;0.47;;;18.50;46.80;;;;;;5002686;28;20100;-71
2021/12/29 05:31:34;;;;;;;2.10;1.13;;;18.60;46.80;;;;;;5012641;28;20079;-71
2021/12/29 05:33:59;;;;;;;0.70;0.60;;;18.60;46.90;;;;;;5012918;28;20153;-71
2021/12/29 05:36:25;;;;;;;0.90;0.60;;;18.60;46.90;;;;;;5012482;28;20026;-71
2021/12/29 05:38:55;;;;;;;1.13;0.52;;;18.60;46.90;;;;;;5014423;28;20022;-71
2021/12/29 05:41:21;;;;;;;1.05;0.60;;;18.60;46.90;;;;;;5015114;28;20024;-71
2021/12/29 05:43:46;;;;;;;1.08;0.68;;;18.60;46.90;;;;;;5016403;28;20101;-71
2021/12/29 05:46:12;;;;;;;0.65;0.50;;;18.60;46.90;;;;;;5016078;28;20029;-71
2021/12/29 05:48:38;;;;;;;1.17;0.80;;;18.60;46.90;;;;;;5016038;28;20026;-71
2021/12/29 05:51:04;;;;;;;1.25;0.60;;;18.60;46.90;;;;;;5016260;28;20026;-71
2021/12/29 05:53:29;;;;;;;0.60;0.50;;;18.60;46.90;;;;;;5016271;28;20077;-71
2021/12/29 05:55:55;;;;;;;1.67;0.80;;;18.60;46.90;;;;;;5015823;28;20030;-71
2021/12/29 05:58:21;;;;;;;1.48;0.77;;;18.60;46.80;;;;;;5016093;28;20034;-71
2021/12/29 06:00:46;;;;;;;0.95;0.73;;;18.70;46.80;;;;;;5016101;28;20030;-71
2021/12/29 06:03:12;;;;;;;1.38;0.60;;;18.70;46.80;;;;;;5015751;28;20049;-71
2021/12/29 06:05:38;;;;;;;0.90;0.68;;;18.70;46.80;;;;;;5015661;28;20037;-71
2021/12/29 06:08:05;;;;;;;1.42;0.70;;;18.70;46.80;;;;;;5015862;28;20049;-71
2021/12/29 06:10:31;;;;;;;1.33;0.60;;;18.80;46.80;;;;;;5015847;28;20429;-71
2021/12/29 06:12:56;;;;;;;0.70;0.60;;;18.80;46.70;;;;;;5014381;28;20068;-71
2021/12/29 06:15:22;;;;;;;1.15;0.52;;;18.80;47.70;;;;;;5014577;28;20542;-71
2021/12/29 06:17:48;;;;;;;1.00;0.60;;;18.90;46.70;;;;;;5010468;28;20383;-71
2021/12/29 06:20:14;;;;;;;1.38;0.75;;;18.90;46.70;;;;;;4996011;28;20030;-71
2021/12/29 06:22:41;;;;;;;1.20;0.70;;;18.90;46.70;;;;;;4996018;28;20034;-71
2021/12/29 06:25:12;;;;;;;1.02;0.70;;;19.00;46.60;;;;;;4995893;28;20471;-71
2021/12/29 06:27:38;;;;;;;1.35;0.70;;;19.00;46.60;;;;;;4995925;28;20022;-71
2021/12/29 06:30:06;;;;;;;1.40;0.70;;;19.00;46.60;;;;;;5012866;28;20033;-71
2021/12/29 06:32:31;;;;;;;0.90;0.77;;;19.10;46.50;;;;;;5015129;28;20026;-71
2021/12/29 06:34:57;;;;;;;1.27;0.70;;;19.10;46.60;;;;;;5015359;28;20040;-71
2021/12/29 06:37:23;;;;;;;0.82;0.55;;;19.10;46.40;;;;;;5015290;28;20112;-71
2021/12/29 06:39:49;;;;;;;1.52;0.60;;;19.10;46.40;;;;;;5015298;28;20076;-71
2021/12/29 06:42:15;;;;;;;1.67;0.80;;;19.10;46.40;;;;;;5015145;28;20018;-71
2021/12/29 06:44:42;;;;;;;0.90;0.70;;;19.20;46.40;;;;;;5015121;28;20121;-71
2021/12/29 06:47:08;;;;;;;0.77;0.60;;;19.20;46.30;;;;;;5013851;28;20056;-71
2021/12/29 06:49:35;;;;;;;0.80;0.70;;;19.20;46.30;;;;;;5014384;28;20475;-71
2021/12/29 06:52:02;;;;;;;1.27;0.50;;;19.20;46.30;;;;;;5014910;28;20052;-71
2021/12/29 06:54:28;;;;;;;1.98;0.80;;;19.30;46.80;;;;;;5014948;28;20391;-71
2021/12/29 06:56:54;;;;;;;1.27;0.55;;;19.30;46.20;;;;;;5013589;28;20014;-71
2021/12/29 06:59:19;;;;;;;1.00;0.70;;;19.30;46.30;;;;;;5013679;28;20530;-71
2021/12/29 07:01:45;;;;;;;1.15;0.80;;;19.30;46.20;;;;;;5014733;28;20406;-71
2021/12/29 07:04:10;;;;;;;1.50;0.77;;;19.30;46.20;;;;;;5014591;28;20498;-71
2021/12/29 07:06:36;;;;;;;2.13;0.75;;;19.40;46.20;;;;;;5014565;28;20380;-71
2021/12/29 07:09:02;;;;;;;1.80;0.68;;;19.40;46.20;;;;;;5014514;28;20018;-71
2021/12/29 07:11:28;;;;;;;1.05;0.68;;;19.40;46.10;;;;;;5014412;28;20029;-71
2021/12/29 07:13:53;;;;;;;1.25;0.80;;;19.40;46.10;;;;;;5014359;28;20014;-71
2021/12/29 07:16:19;;;;;;;0.70;0.60;;;19.40;46.10;;;;;;5014528;28;20157;-71
2021/12/29 07:18:48;;;;;;;2.00;0.70;;;19.40;46.10;;;;;;5000144;28;20486;-71
2021/12/29 07:21:14;;;;;;;1.23;0.70;;;19.40;46.00;;;;;;4994814;28;20037;-71
2021/12/29 07:23:39;;;;;;;2.15;1.00;;;19.40;46.00;;;;;;4994624;28;20026;-71
2021/12/29 07:26:05;;;;;;;1.45;0.73;;;19.50;46.10;;;;;;4994838;28;20058;-71
2021/12/29 07:28:30;;;;;;;1.35;0.77;;;19.50;46.00;;;;;;4997594;28;20117;-71
2021/12/29 07:30:56;;;;;;;0.77;0.60;;;19.50;46.00;;;;;;5014067;28;20021;-71
2021/12/29 07:33:22;;;;;;;1.52;0.85;;;19.50;46.00;;;;;;5014090;28;20457;-71
2021/12/29 07:35:47;;;;;;;0.77;0.50;;;19.50;46.00;;;;;;5014034;28;20061;-71
2021/12/29 07:38:13;;;;;;;0.60;0.60;;;19.50;45.90;;;;;;5013976;28;20108;-71
2021/12/29 07:40:38;;;;;;;1.27;0.70;;;19.50;45.90;;;;;;5013996;28;20382;-71
2021/12/29 07:43:04;;;;;;;1.38;0.60;;;19.50;45.90;;;;;;5012681;28;20080;-71
2021/12/29 07:45:30;;;;;;;1.10;0.82;;;19.60;46.00;;;;;;5013914;28;20080;-71
2021/12/29 07:47:56;;;;;;;1.40;0.88;;;19.60;46.00;;;;;;5013852;28;20087;-71
2021/12/29 07:50:22;;;;;;;1.58;0.90;;;19.60;45.90;;;;;;5013669;28;20470;-71
2021/12/29 07:52:48;;;;;;;0.98;0.70;;;19.50;45.90;;;;;;5013626;28;20029;-71
2021/12/29 07:55:18;;;;;;;2.53;0.90;;;19.60;45.90;;;;;;5013738;28;20119;-71
2021/12/29 07:57:45;;;;;;;2.05;1.05;;;19.60;45.80;;;;;;5013694;28;20030;-71
2021/12/29 08:00:11;;;;;;;1.50;0.70;;;19.60;45.80;;;;;;5013348;28;20528;-71
2021/12/29 08:02:37;;;;;;;1.38;0.80;;;19.60;45.80;;;;;;5011519;28;20026;-71
2021/12/29 08:05:07;;;;;;;0.95;0.93;;;19.60;45.90;;;;;;5013289;28;20025;-71
2021/12/29 08:07:34;;;;;;;1.00;0.70;;;19.60;45.80;;;;;;5013266;28;20057;-71
2021/12/29 08:09:59;;;;;;;0.93;0.80;;;19.60;45.80;;;;;;5013377;28;20025;-71
2021/12/29 08:12:26;;;;;;;0.80;0.70;;;19.60;45.80;;;;;;5013300;28;20133;-71
2021/12/29 08:14:51;;;;;;;1.83;0.82;;;19.60;45.80;;;;;;5013242;28;20036;-71
2021/12/29 08:17:17;;;;;;;1.42;0.88;;;19.60;45.80;;;;;;5012093;28;20025;-71
2021/12/29 08:19:43;;;;;;;2.35;1.00;;;19.60;45.80;;;;;;4993591;28;20109;-71
2021/12/29 08:22:09;;;;;;;1.73;0.80;;;19.70;45.80;;;;;;4993712;28;20387;-71
2021/12/29 08:24:35;;;;;;;0.70;0.70;;;19.60;45.70;;;;;;4993469;28;20077;-71
2021/12/29 08:27:01;;;;;;;0.98;0.82;;;19.70;45.80;;;;;;4993322;28;20479;-71
2021/12/29 08:29:26;;;;;;;0.75;0.73;;;19.70;45.80;;;;;;5005184;28;20022;-71
2021/12/29 08:31:52;;;;;;;1.70;0.95;;;19.70;45.80;;;;;;5013077;28;20081;-71
2021/12/29 08:34:18;;;;;;;1.02;0.57;;;19.70;45.80;;;;;;5012994;28;20022;-71
2021/12/29 08:36:43;;;;;;;1.88;0.73;;;19.70;45.80;;;;;;5013208;28;20053;-71
2021/12/29 08:39:09;;;;;;;0.95;0.75;;;19.70;45.80;;;;;;5011559;28;20033;-71
2021/12/29 08:41:34;;;;;;;1.48;0.90;;;19.70;45.80;;;;;;5011723;28;20045;-71
2021/12/29 08:44:00;;;;;;;1.55;0.82;;;19.70;45.80;;;;;;5012911;28;20025;-71
2021/12/29 08:46:26;;;;;;;1.48;0.73;;;19.70;45.70;;;;;;5011581;28;20026;-71
2021/12/29 08:48:52;;;;;;;1.15;0.80;;;19.70;45.70;;;;;;5012733;28;20029;-71
2021/12/29 08:51:19;;;;;;;1.20;0.80;;;19.80;45.80;;;;;;5012911;28;20544;-71
2021/12/29 08:53:45;;;;;;;0.98;0.80;;;19.80;45.80;;;;;;5011543;28;20152;-71
2021/12/29 08:56:13;;;;;;;1.33;0.90;;;19.70;45.70;;;;;;5012916;28;20022;-71
2021/12/29 08:58:38;;;;;;;1.23;0.60;;;19.80;45.70;;;;;;5012692;28;20026;-71
2021/12/29 09:01:04;;;;;;;1.08;0.70;;;19.80;45.70;;;;;;5012645;28;20390;-71
2021/12/29 09:03:30;;;;;;;2.15;0.90;;;19.80;45.70;;;;;;5012697;28;20022;-71
2021/12/29 09:05:55;;;;;;;0.80;0.70;;;19.80;45.70;;;;;;5011309;28;20053;-71
2021/12/29 09:08:21;;;;;;;1.13;0.80;;;19.80;45.70;;;;;;5012840;28;20057;-71
2021/12/29 09:10:46;;;;;;;1.70;0.98;;;19.80;45.70;;;;;;5012626;28;20030;-71
2021/12/29 09:13:13;;;;;;;1.05;0.80;;;19.80;45.70;;;;;;5014934;28;20080;-71
2021/12/29 09:15:39;;;;;;;1.15;0.70;;;19.80;45.70;;;;;;5015323;28;20046;-71
2021/12/29 09:18:05;;;;;;;1.13;0.90;;;19.80;45.70;;;;;;5009022;28;20141;-71
2021/12/29 09:20:33;;;;;;;1.10;0.70;;;19.80;45.70;;;;;;4996853;28;20030;-71
2021/12/29 09:23:05;;;;;;;1.15;0.88;;;19.80;45.70;;;;;;4996926;28;20033;-71
2021/12/29 09:25:32;;;;;;;1.20;0.90;;;19.80;45.70;;;;;;4996588;28;20034;-71
2021/12/29 09:27:58;;;;;;;1.67;1.00;;;19.80;45.70;;;;;;4996889;28;20117;-71
2021/12/29 09:30:27;;;;;;;2.03;0.80;;;19.80;45.70;;;;;;4997824;28;20443;-71
2021/12/29 09:32:53;;;;;;;0.88;0.60;;;19.80;45.70;;;;;;5016295;28;20536;-71
2021/12/29 09:35:20;;;;;;;0.85;0.70;;;19.80;45.70;;;;;;5016191;28;20048;-71
2021/12/29 09:37:47;;;;;;;1.17;0.80;;;19.80;45.70;;;;;;5014939;28;20486;-71
2021/12/29 09:40:15;;;;;;;1.13;0.70;;;19.80;45.70;;;;;;5013007;28;21504;-71
2021/12/29 09:42:41;;;;;;;1.80;0.80;;;19.80;45.70;;;;;;5011534;28;20037;-71
2021/12/29 09:45:08;;;;;;;1.20;0.77;;;19.80;45.70;;;;;;5015898;28;20034;-71
2021/12/29 09:47:34;;;;;;;0.95;0.80;;;19.90;45.70;;;;;;5016110;28;20030;-71
2021/12/29 09:50:00;;;;;;;1.17;0.82;;;19.90;45.70;;;;;;5014468;28;20026;-71
2021/12/29 09:52:29;;;;;;;0.50;0.50;;;19.90;45.70;;;;;;5014714;28;20022;-71
2021/12/29 09:54:56;;;;;;;1.38;0.63;;;19.90;45.70;;;;;;5015849;28;20458;-71
2021/12/29 09:57:22;;;;;;;1.55;0.65;;;19.90;45.80;;;;;;5015910;28;20434;-71
2021/12/29 09:59:48;;;;;;;0.98;0.80;;;19.90;45.70;;;;;;5014594;28;20092;-71
2021/12/29 10:02:13;;;;;;;1.40;0.90;;;19.90;45.80;;;;;;5015654;28;20025;-71
2021/12/29 10:04:39;;;;;;;1.27;0.80;;;19.90;45.70;;;;;;5015400;28;20482;-71
2021/12/29 10:07:16;;;;;;;1.70;0.82;;;19.90;45.70;;;;;;5015512;28;20384;-71
2021/12/29 10:09:42;;;;;;;0.70;0.70;;;19.90;45.60;;;;;;5015630;28;20018;-71
2021/12/29 10:12:10;;;;;;;1.27;0.88;;;19.90;45.80;;;;;;5015695;28;20508;-71
2021/12/29 10:14:35;;;;;;;1.85;0.98;;;19.90;45.70;;;;;;5015554;28;20021;-71
2021/12/29 10:17:08;;;;;;;1.73;0.70;;;19.90;45.80;;;;;;5015352;28;20030;-71
2021/12/29 10:19:37;;;;;;;1.67;0.93;;;19.90;45.80;;;;;;4995699;28;20046;-71
2021/12/29 10:22:03;;;;;;;1.42;0.88;;;19.90;45.70;;;;;;4995633;28;20072;-71
2021/12/29 10:24:28;;;;;;;0.90;0.70;;;19.90;45.80;;;;;;4994579;28;20068;-71
2021/12/29 10:26:57;;;;;;;0.98;0.68;;;19.90;45.80;;;;;;4995601;28;20562;-71
2021/12/29 10:29:22;;;;;;;0.93;0.68;;;19.90;45.70;;;;;;5006994;28;20397;-71
2021/12/29 10:31:52;;;;;;;1.08;0.90;;;19.90;45.80;;;;;;5013970;28;20022;-71
2021/12/29 10:34:22;;;;;;;1.00;0.60;;;19.90;45.70;;;;;;5015138;28;20037;-71
2021/12/29 10:36:57;;;;;;;0.65;0.65;;;19.90;45.70;;;;;;5014925;28;20479;-71
2021/12/29 10:39:32;;;;;;;1.52;0.90;;;19.90;45.70;;;;;;5013709;28;20029;-71
2021/12/29 10:42:17;;;;;;;1.02;0.77;;;19.90;45.70;;;;;;5015100;28;20021;-71
2021/12/29 10:44:47;;;;;;;1.30;0.73;;;19.90;45.80;;;;;;5015065;28;20395;-71
2021/12/29 10:47:25;;;;;;;1.05;0.93;;;19.90;45.80;;;;;;5014889;28;20022;-71
2021/12/29 10:50:00;;;;;;;1.35;0.80;;;20.00;45.80;;;;;;5013811;28;20022;-71
2021/12/29 10:52:44;;;;;;;1.40;0.77;;;19.90;45.80;;;;;;5013613;28;20018;-71
2021/12/29 10:55:31;;;;;;;1.80;0.80;;;19.90;45.80;;;;;;5014863;28;20034;-71
2021/12/29 10:58:09;;;;;;;0.93;0.70;;;19.90;45.80;;;;;;5014789;28;20037;-71
2021/12/29 11:00:38;;;;;;;1.00;0.70;;;19.90;45.90;;;;;;5012383;28;20038;-71
2021/12/29 11:03:14;;;;;;;1.10;0.90;;;19.90;45.90;;;;;;5021192;28;20047;-71
2021/12/29 11:05:42;;;;;;;1.58;0.80;;;19.90;45.90;;;;;;4995097;28;20046;-70
2021/12/29 11:08:09;;;;;;;1.17;0.90;;;19.90;45.90;;;;;;4995525;28;20023;-70
2021/12/29 11:10:35;;;;;;;0.98;0.70;;;19.90;45.90;;;;;;4995280;28;20364;-70
2021/12/29 11:13:01;;;;;;;0.88;0.70;;;20.00;46.00;;;;;;4995287;28;20098;-70
2021/12/29 11:15:32;;;;;;;0.80;0.70;;;20.00;46.00;;;;;;4995193;28;20029;-70
2021/12/29 11:18:04;;;;;;;0.95;0.73;;;20.00;45.90;;;;;;5001710;28;20576;-70
2021/12/29 11:20:31;;;;;;;1.20;0.80;;;20.00;45.90;;;;;;5013670;28;20133;-70
2021/12/29 11:23:24;;;;;;;0.75;0.68;;;20.00;46.00;;;;;;5012720;28;20029;-70
2021/12/29 11:25:51;;;;;;;1.35;0.80;;;20.00;45.90;;;;;;5008635;28;20172;-70
2021/12/29 11:28:25;;;;;;;1.00;0.82;;;19.90;45.90;;;;;;5013976;28;20030;-70
2021/12/29 11:30:52;;;;;;;1.05;0.70;;;20.00;46.00;;;;;;5014009;28;20025;-70
2021/12/29 11:33:18;;;;;;;1.42;0.88;;;20.00;46.00;;;;;;5014105;28;20079;-70
2021/12/29 11:35:50;;;;;;;1.80;0.90;;;20.00;47.00;;;;;;5013692;28;20064;-70
2021/12/29 11:38:17;;;;;;;1.83;0.80;;;20.00;46.00;;;;;;4995492;28;20018;-70
2021/12/29 11:40:52;;;;;;;0.73;0.73;;;20.00;46.00;;;;;;5013871;28;20041;-70
2021/12/29 11:43:19;;;;;;;0.95;0.68;;;20.00;46.00;;;;;;5012690;28;20026;-70
2021/12/29 11:45:48;;;;;;;0.73;0.55;;;20.00;46.00;;;;;;5014016;28;20022;-71
2021/12/29 11:48:15;;;;;;;1.92;0.85;;;20.00;46.00;;;;;;5013771;28;20026;-71
2021/12/29 11:50:48;;;;;;;1.45;0.60;;;20.00;46.00;;;;;;5013877;28;20022;-71
2021/12/29 11:53:44;;;;;;;1.13;0.80;;;20.00;46.00;;;;;;5013554;28;20030;-70
2021/12/29 11:56:17;;;;;;;0.93;0.73;;;20.00;46.00;;;;;;5013607;28;20088;-71
2021/12/29 11:58:44;;;;;;;1.30;0.98;;;20.00;46.00;;;;;;5013718;28;20028;-71
2021/12/29 12:01:13;;;;;;;1.52;0.73;;;20.00;46.10;;;;;;5013605;28;20026;-71
2021/12/29 12:03:48;;;;;;;1.77;1.17;;;20.00;46.10;;;;;;5013600;28;20058;-71
2021/12/29 12:06:39;;;;;;;1.30;0.70;;;20.00;46.10;;;;;;5013284;28;20050;-70
2021/12/29 12:09:10;;;;;;;0.70;0.70;;;20.00;46.00;;;;;;5012094;28;20073;-70
2021/12/29 12:11:38;;;;;;;1.33;0.63;;;20.00;46.10;;;;;;5012081;28;20116;-70
2021/12/29 12:14:18;;;;;;;0.70;0.55;;;20.00;46.20;;;;;;5013324;28;20554;-71
2021/12/29 12:17:13;;;;;;;1.48;0.90;;;20.00;46.10;;;;;;5013258;28;20026;-71
2021/12/29 12:19:39;;;;;;;0.90;0.60;;;20.00;46.10;;;;;;4993699;28;20575;-70
2021/12/29 12:22:08;;;;;;;0.77;0.60;;;20.00;46.20;;;;;;4993607;28;20387;-70
2021/12/29 12:24:37;;;;;;;0.80;0.70;;;20.00;46.20;;;;;;4993594;28;20088;-70
2021/12/29 12:27:07;;;;;;;0.63;0.55;;;20.00;46.20;;;;;;4993479;28;20394;-71
2021/12/29 12:29:38;;;;;;;0.52;0.52;;;20.00;46.20;;;;;;5006374;28;20076;-71
2021/12/29 12:32:12;;;;;;;1.95;0.88;;;20.00;46.20;;;;;;5013032;28;20018;-70
2021/12/29 12:34:59;;;;;;;1.08;0.85;;;20.00;46.20;;;;;;5013201;28;20097;-70
2021/12/29 12:37:34;;;;;;;0.95;0.80;;;20.00;46.20;;;;;;5013033;28;20018;-70
2021/12/29 12:40:04;;;;;;;0.93;0.77;;;20.00;46.20;;;;;;5012886;28;20028;-70
2021/12/29 12:42:30;;;;;;;1.02;0.60;;;20.00;46.30;;;;;;5013032;28;20068;-71
2021/12/29 12:44:57;;;;;;;1.40;0.80;;;20.00;46.20;;;;;;5011791;28;20029;-70
2021/12/29 12:47:29;;;;;;;1.00;0.75;;;20.00;46.30;;;;;;5011981;28;20018;-70
2021/12/29 12:49:55;;;;;;;1.02;0.50;;;20.00;46.20;;;;;;5012801;28;20033;-70
2021/12/29 12:52:23;;;;;;;1.10;0.80;;;20.00;46.30;;;;;;5012762;28;20014;-70
2021/12/29 12:54:57;;;;;;;0.77;0.63;;;20.00;46.20;;;;;;5012943;28;20048;-70
2021/12/29 12:57:50;;;;;;;1.10;0.52;;;20.00;46.20;;;;;;5012949;28;20025;-70
2021/12/29 13:00:25;;;;;;;0.60;0.60;;;20.00;46.10;;;;;;5012848;28;20101;-70